Weather Data

Pearl Creek Farm: 8878 N Farm Road 75, Walnut Grove MO 65770

<== Previous Day (Saturday 21 Mar 2009) | Next Day (Monday 23 Mar 2009) ==>

Summary Precipitation Data For Sunday 22 March 2009

ElementValueUnits
PrecipitationT
Notes(none)
SourceSpringfield-Branson National Airport (SGF)

Summary Temperature Data For Sunday 22 March 2009

ElementValueUnits
High Temperature70 oF
Low Temperature46 oF
Average Temperature58 oF
High Humidity86 %
Low Humidity44 %
Average Humidity60 %
SourceSpringfield-Branson National Airport (SGF)

Detail Temperature Data For Sunday 22 March 2009

Date / TimeTemp (F)RH (%)Dew Pt (F)Report Date / TimeSource
2009-03-22 00:52:00 47 86 43.0 2017-12-29 19:14:24.89625 Springfield-Branson National Airport (SGF)
2009-03-22 01:52:00 47 86 43.0 2017-12-29 19:14:24.89625 Springfield-Branson National Airport (SGF)
2009-03-22 02:52:00 47 86 43.0 2017-12-29 19:14:24.89625 Springfield-Branson National Airport (SGF)
2009-03-22 03:52:00 47 83 42.0 2017-12-29 19:14:24.89625 Springfield-Branson National Airport (SGF)
2009-03-22 05:52:00 46 79 40.0 2017-12-29 19:14:24.89625 Springfield-Branson National Airport (SGF)
2009-03-22 06:52:00 47 77 40.0 2017-12-29 19:14:24.89625 Springfield-Branson National Airport (SGF)
2009-03-22 08:52:00 54 59 40.0 2017-12-29 19:14:24.89625 Springfield-Branson National Airport (SGF)
2009-03-22 09:52:00 56 57 41.0 2017-12-29 19:14:24.89625 Springfield-Branson National Airport (SGF)
2009-03-22 10:52:00 60 52 42.0 2017-12-29 19:14:24.89625 Springfield-Branson National Airport (SGF)
2009-03-22 11:52:00 64 48 44.0 2017-12-29 19:14:24.89625 Springfield-Branson National Airport (SGF)
2009-03-22 23:52:00 60 56 44.0 2017-12-29 19:14:24.89625 Springfield-Branson National Airport (SGF)
2009-03-22 04:52:00 46 79 40.0 2017-12-29 19:14:24.89625 Springfield-Branson National Airport (SGF)
2009-03-22 07:52:00 50 68 40.0 2017-12-29 19:14:24.89625 Springfield-Branson National Airport (SGF)
2009-03-22 12:52:00 67 47 46.0 2017-12-29 19:14:24.89625 Springfield-Branson National Airport (SGF)
2009-03-22 13:52:00 70 44 47.0 2017-12-29 19:14:24.89625 Springfield-Branson National Airport (SGF)
2009-03-22 14:52:00 69 44 46.0 2017-12-29 19:14:24.89625 Springfield-Branson National Airport (SGF)
2009-03-22 15:52:00 70 44 47.0 2017-12-29 19:14:24.89625 Springfield-Branson National Airport (SGF)
2009-03-22 16:52:00 70 44 47.0 2017-12-29 19:14:24.89625 Springfield-Branson National Airport (SGF)
2009-03-22 17:52:00 68 45 46.0 2017-12-29 19:14:24.89625 Springfield-Branson National Airport (SGF)
2009-03-22 18:52:00 66 47 45.0 2017-12-29 19:14:24.89625 Springfield-Branson National Airport (SGF)
2009-03-22 19:52:00 65 47 44.0 2017-12-29 19:14:24.89625 Springfield-Branson National Airport (SGF)
2009-03-22 20:52:00 63 48 43.0 2017-12-29 19:14:24.89625 Springfield-Branson National Airport (SGF)
2009-03-22 21:52:00 62 50 43.0 2017-12-29 19:14:24.89625 Springfield-Branson National Airport (SGF)
2009-03-22 22:52:00 61 52 43.0 2017-12-29 19:14:24.89625 Springfield-Branson National Airport (SGF)

A total of 24 rows are displayed.